SHT22A EGLL-EGJB
Flight info
| Callsign | SHT22A |
|---|---|
| Flight time | 0h 32m |
| Altitude | 19000 |
| Route | GASGU N866 SAM/N0374F180 N63 LELNA |
| Aircraft | A320/M-SDE3FGHIRWY/LB1 |
Departure
| Time | 2026-04-25 16:28 |
|---|---|
| Airport | London Heathrow Airport (EGLL) |
Arrival
| Time | 2026-04-25 17:00 |
|---|---|
| Airport | Guernsey Airport (EGJB) |
| Time | Latitude | Longitude | Altitude | Speed | Heading |
|---|---|---|---|---|---|
| 2026-04-25 16:09 | 51.47232 | -0.48588 | 87 ft | 0 kts | 270° |
| 2026-04-25 16:20 | 51.47232 | -0.48537 | 87 ft | 2 kts | 270° |
| 2026-04-25 16:20 | 51.47235 | -0.48499 | 89 ft | 4 kts | 240° |
| 2026-04-25 16:20 | 51.47261 | -0.48476 | 88 ft | 0 kts | 180° |
| 2026-04-25 16:23 | 51.47242 | -0.48476 | 89 ft | 7 kts | 180° |
| 2026-04-25 16:23 | 51.47177 | -0.48475 | 87 ft | 11 kts | 180° |
| 2026-04-25 16:24 | 51.47090 | -0.48475 | 87 ft | 14 kts | 180° |
| 2026-04-25 16:24 | 51.46985 | -0.48474 | 87 ft | 16 kts | 180° |
| 2026-04-25 16:24 | 51.46859 | -0.48473 | 87 ft | 19 kts | 180° |
| 2026-04-25 16:24 | 51.46721 | -0.48473 | 87 ft | 10 kts | 180° |
| 2026-04-25 16:25 | 51.46712 | -0.48473 | 87 ft | 2 kts | 180° |
| 2026-04-25 16:25 | 51.46706 | -0.48472 | 87 ft | 3 kts | 180° |
| 2026-04-25 16:25 | 51.46650 | -0.48472 | 87 ft | 7 kts | 180° |
| 2026-04-25 16:25 | 51.46611 | -0.48472 | 87 ft | 4 kts | 180° |
| 2026-04-25 16:26 | 51.46594 | -0.48472 | 88 ft | 1 kts | 180° |
| 2026-04-25 16:26 | 51.46586 | -0.48472 | 88 ft | 2 kts | 180° |
| 2026-04-25 16:26 | 51.46565 | -0.48471 | 88 ft | 5 kts | 180° |
| 2026-04-25 16:26 | 51.46512 | -0.48471 | 89 ft | 9 kts | 180° |
| 2026-04-25 16:27 | 51.46478 | -0.48443 | 89 ft | 8 kts | 107° |
| 2026-04-25 16:27 | 51.46479 | -0.48322 | 89 ft | 20 kts | 91° |
| 2026-04-25 16:27 | 51.46475 | -0.47680 | 89 ft | 93 kts | 90° |
| 2026-04-25 16:27 | 51.46488 | -0.46323 | 90 ft | 146 kts | 88° |
| 2026-04-25 16:28 | 51.46499 | -0.44494 | 335 ft | 168 kts | 89° |
| 2026-04-25 16:28 | 51.46537 | -0.42634 | 1045 ft | 167 kts | 89° |
| 2026-04-25 16:28 | 51.46231 | -0.40776 | 1533 ft | 184 kts | 124° |
| 2026-04-25 16:28 | 51.45368 | -0.39105 | 1948 ft | 206 kts | 129° |
| 2026-04-25 16:29 | 51.44448 | -0.37171 | 2418 ft | 231 kts | 124° |
| 2026-04-25 16:29 | 51.43445 | -0.34988 | 3000 ft | 252 kts | 132° |
| 2026-04-25 16:29 | 51.41994 | -0.33331 | 3909 ft | 262 kts | 156° |
| 2026-04-25 16:29 | 51.40192 | -0.32815 | 4863 ft | 270 kts | 184° |
| 2026-04-25 16:30 | 51.38499 | -0.33638 | 5695 ft | 276 kts | 211° |
| 2026-04-25 16:30 | 51.36939 | -0.35555 | 6681 ft | 278 kts | 220° |
| 2026-04-25 16:30 | 51.35445 | -0.37524 | 7587 ft | 280 kts | 220° |
| 2026-04-25 16:30 | 51.33940 | -0.39514 | 8489 ft | 283 kts | 220° |
| 2026-04-25 16:31 | 51.32410 | -0.41536 | 9407 ft | 285 kts | 220° |
| 2026-04-25 16:31 | 51.30872 | -0.43563 | 10285 ft | 288 kts | 220° |
| 2026-04-25 16:31 | 51.29268 | -0.45670 | 10691 ft | 310 kts | 220° |
| 2026-04-25 16:31 | 51.27541 | -0.47930 | 10946 ft | 332 kts | 220° |
| 2026-04-25 16:32 | 51.25700 | -0.50335 | 11488 ft | 342 kts | 220° |
| 2026-04-25 16:32 | 51.23841 | -0.52760 | 12217 ft | 346 kts | 220° |
| 2026-04-25 16:32 | 51.21994 | -0.55166 | 12954 ft | 349 kts | 220° |
| 2026-04-25 16:32 | 51.20074 | -0.57663 | 13686 ft | 353 kts | 220° |
| 2026-04-25 16:33 | 51.18160 | -0.60150 | 14372 ft | 356 kts | 219° |
| 2026-04-25 16:33 | 51.16223 | -0.62657 | 15021 ft | 359 kts | 220° |
| 2026-04-25 16:33 | 51.14278 | -0.65174 | 15665 ft | 362 kts | 220° |
| 2026-04-25 16:33 | 51.12317 | -0.67720 | 16281 ft | 365 kts | 220° |
| 2026-04-25 16:34 | 51.10323 | -0.70298 | 16920 ft | 368 kts | 220° |
| 2026-04-25 16:34 | 51.08286 | -0.72924 | 17569 ft | 371 kts | 222° |
| 2026-04-25 16:34 | 51.06571 | -0.75936 | 18063 ft | 372 kts | 234° |
| 2026-04-25 16:34 | 51.05537 | -0.78104 | 18156 ft | 372 kts | 234° |
| 2026-04-25 16:35 | 51.03902 | -0.81536 | 18194 ft | 390 kts | 234° |
| 2026-04-25 16:35 | 51.02230 | -0.85050 | 18193 ft | 396 kts | 234° |
| 2026-04-25 16:35 | 51.00376 | -0.88292 | 18190 ft | 400 kts | 220° |
| 2026-04-25 16:35 | 50.98146 | -0.90963 | 18194 ft | 401 kts | 218° |
| 2026-04-25 16:36 | 50.95930 | -0.93645 | 18196 ft | 401 kts | 219° |
| 2026-04-25 16:36 | 50.95182 | -0.94561 | 18195 ft | 401 kts | 219° |
| 2026-04-25 16:36 | 50.91535 | -0.99074 | 18199 ft | 401 kts | 219° |
| 2026-04-25 16:36 | 50.89337 | -1.01795 | 18195 ft | 401 kts | 219° |
| 2026-04-25 16:37 | 50.87135 | -1.04515 | 18193 ft | 401 kts | 219° |
| 2026-04-25 16:37 | 50.84935 | -1.07218 | 18192 ft | 401 kts | 219° |
| 2026-04-25 16:37 | 50.82726 | -1.09922 | 18195 ft | 401 kts | 219° |
| 2026-04-25 16:37 | 50.80515 | -1.12614 | 18192 ft | 401 kts | 219° |
| 2026-04-25 16:38 | 50.78305 | -1.15300 | 18193 ft | 401 kts | 219° |
| 2026-04-25 16:38 | 50.76031 | -1.18067 | 18194 ft | 401 kts | 219° |
| 2026-04-25 16:38 | 50.73826 | -1.20745 | 18198 ft | 401 kts | 219° |
| 2026-04-25 16:38 | 50.71574 | -1.23476 | 18201 ft | 401 kts | 219° |
| 2026-04-25 16:39 | 50.69342 | -1.26183 | 18206 ft | 401 kts | 219° |
| 2026-04-25 16:39 | 50.67146 | -1.28844 | 18205 ft | 401 kts | 219° |
| 2026-04-25 16:39 | 50.64934 | -1.31519 | 18206 ft | 401 kts | 219° |
| 2026-04-25 16:39 | 50.62716 | -1.34196 | 18207 ft | 401 kts | 219° |
| 2026-04-25 16:40 | 50.60500 | -1.36866 | 18211 ft | 401 kts | 219° |
| 2026-04-25 16:40 | 50.58285 | -1.39534 | 18211 ft | 401 kts | 219° |
| 2026-04-25 16:40 | 50.56063 | -1.42209 | 18214 ft | 401 kts | 219° |
| 2026-04-25 16:40 | 50.53849 | -1.44871 | 18214 ft | 402 kts | 219° |
| 2026-04-25 16:41 | 50.51634 | -1.47530 | 18215 ft | 402 kts | 218° |
| 2026-04-25 16:41 | 50.50883 | -1.48431 | 18217 ft | 402 kts | 218° |
| 2026-04-25 16:41 | 50.44928 | -1.55551 | 18215 ft | 402 kts | 218° |
| 2026-04-25 16:42 | 50.42705 | -1.58206 | 18218 ft | 402 kts | 218° |
| 2026-04-25 16:42 | 50.40482 | -1.60860 | 18218 ft | 402 kts | 218° |
| 2026-04-25 16:42 | 50.38264 | -1.63504 | 18221 ft | 401 kts | 218° |
| 2026-04-25 16:42 | 50.36036 | -1.66157 | 18221 ft | 401 kts | 218° |
| 2026-04-25 16:43 | 50.33818 | -1.68789 | 18220 ft | 401 kts | 218° |
| 2026-04-25 16:43 | 50.31594 | -1.71423 | 18223 ft | 401 kts | 218° |
| 2026-04-25 16:43 | 50.29371 | -1.74056 | 18222 ft | 400 kts | 218° |
| 2026-04-25 16:43 | 50.27152 | -1.76685 | 18224 ft | 400 kts | 218° |
| 2026-04-25 16:44 | 50.24932 | -1.79311 | 18224 ft | 400 kts | 218° |
| 2026-04-25 16:44 | 50.22711 | -1.81934 | 18222 ft | 400 kts | 218° |
| 2026-04-25 16:44 | 50.20490 | -1.84555 | 18224 ft | 400 kts | 218° |
| 2026-04-25 16:44 | 50.18276 | -1.87169 | 18151 ft | 396 kts | 218° |
| 2026-04-25 16:45 | 50.16094 | -1.89739 | 17965 ft | 380 kts | 218° |
| 2026-04-25 16:45 | 50.14106 | -1.92329 | 17718 ft | 366 kts | 224° |
| 2026-04-25 16:45 | 50.12312 | -1.95094 | 17252 ft | 360 kts | 225° |
| 2026-04-25 16:45 | 50.10558 | -1.97848 | 16722 ft | 356 kts | 225° |
| 2026-04-25 16:46 | 50.08825 | -2.00588 | 16183 ft | 354 kts | 225° |
| 2026-04-25 16:46 | 50.07112 | -2.03312 | 15672 ft | 351 kts | 225° |
| 2026-04-25 16:46 | 50.05417 | -2.06022 | 15147 ft | 348 kts | 225° |
| 2026-04-25 16:46 | 50.04867 | -2.06906 | 14985 ft | 348 kts | 225° |
| 2026-04-25 16:47 | 50.02069 | -2.11425 | 14105 ft | 345 kts | 225° |
| 2026-04-25 16:47 | 50.00417 | -2.14112 | 13512 ft | 343 kts | 225° |
| 2026-04-25 16:47 | 49.98777 | -2.16789 | 12963 ft | 341 kts | 226° |
| 2026-04-25 16:47 | 49.97144 | -2.19456 | 12422 ft | 339 kts | 225° |
| 2026-04-25 16:48 | 49.96046 | -2.21242 | 12074 ft | 337 kts | 224° |
| 2026-04-25 16:48 | 49.94331 | -2.23709 | 11557 ft | 335 kts | 221° |
| 2026-04-25 16:48 | 49.92593 | -2.26099 | 11065 ft | 333 kts | 220° |
| 2026-04-25 16:48 | 49.90863 | -2.28475 | 10591 ft | 331 kts | 220° |
| 2026-04-25 16:49 | 49.89172 | -2.30801 | 10453 ft | 318 kts | 220° |
| 2026-04-25 16:49 | 49.87550 | -2.33038 | 10332 ft | 307 kts | 220° |
| 2026-04-25 16:49 | 49.85983 | -2.35201 | 10203 ft | 296 kts | 220° |
| 2026-04-25 16:49 | 49.84469 | -2.37294 | 10092 ft | 287 kts | 220° |
| 2026-04-25 16:50 | 49.82997 | -2.39332 | 9813 ft | 283 kts | 220° |
| 2026-04-25 16:50 | 49.81536 | -2.41355 | 9477 ft | 281 kts | 220° |
| 2026-04-25 16:50 | 49.80080 | -2.43369 | 9124 ft | 280 kts | 220° |
| 2026-04-25 16:50 | 49.78627 | -2.45379 | 8785 ft | 279 kts | 220° |
| 2026-04-25 16:51 | 49.77183 | -2.47373 | 8447 ft | 278 kts | 220° |
| 2026-04-25 16:51 | 49.75738 | -2.49367 | 8114 ft | 278 kts | 220° |
| 2026-04-25 16:51 | 49.74294 | -2.51356 | 7777 ft | 277 kts | 220° |
| 2026-04-25 16:51 | 49.73324 | -2.52692 | 7543 ft | 277 kts | 220° |
| 2026-04-25 16:52 | 49.71403 | -2.55333 | 7211 ft | 274 kts | 220° |
| 2026-04-25 16:52 | 49.69973 | -2.57296 | 7072 ft | 276 kts | 220° |
| 2026-04-25 16:52 | 49.68481 | -2.59171 | 6926 ft | 276 kts | 213° |
| 2026-04-25 16:52 | 49.66867 | -2.60767 | 6759 ft | 275 kts | 211° |
| 2026-04-25 16:53 | 49.63599 | -2.63869 | 6111 ft | 273 kts | 210° |
| 2026-04-25 16:53 | 49.61989 | -2.65395 | 5805 ft | 271 kts | 210° |
| 2026-04-25 16:53 | 49.60388 | -2.66917 | 5499 ft | 269 kts | 210° |
| 2026-04-25 16:54 | 49.58805 | -2.68431 | 5209 ft | 267 kts | 211° |
| 2026-04-25 16:54 | 49.57240 | -2.69930 | 5023 ft | 261 kts | 210° |
| 2026-04-25 16:54 | 49.55723 | -2.71382 | 4895 ft | 253 kts | 210° |
| 2026-04-25 16:54 | 49.54273 | -2.72776 | 4760 ft | 238 kts | 210° |
| 2026-04-25 16:55 | 49.53364 | -2.73657 | 4667 ft | 226 kts | 210° |
| 2026-04-25 16:55 | 49.51650 | -2.75335 | 4304 ft | 214 kts | 211° |
| 2026-04-25 16:55 | 49.50407 | -2.76556 | 3916 ft | 212 kts | 210° |
| 2026-04-25 16:55 | 49.49173 | -2.77778 | 3567 ft | 207 kts | 210° |
| 2026-04-25 16:56 | 49.48009 | -2.78955 | 3406 ft | 195 kts | 211° |
| 2026-04-25 16:56 | 49.46893 | -2.80094 | 3083 ft | 192 kts | 210° |
| 2026-04-25 16:56 | 49.45752 | -2.81163 | 2742 ft | 187 kts | 196° |
| 2026-04-25 16:56 | 49.44506 | -2.81213 | 2387 ft | 179 kts | 156° |
| 2026-04-25 16:57 | 49.43490 | -2.80117 | 2026 ft | 179 kts | 126° |
| 2026-04-25 16:57 | 49.43121 | -2.79045 | 2005 ft | 166 kts | 108° |
| 2026-04-25 16:57 | 49.43021 | -2.76846 | 1992 ft | 146 kts | 90° |
| 2026-04-25 16:57 | 49.43065 | -2.75329 | 1995 ft | 141 kts | 90° |
| 2026-04-25 16:58 | 49.43107 | -2.73875 | 1894 ft | 135 kts | 90° |
| 2026-04-25 16:58 | 49.43148 | -2.72455 | 1740 ft | 132 kts | 90° |
| 2026-04-25 16:58 | 49.43188 | -2.71051 | 1587 ft | 130 kts | 89° |
| 2026-04-25 16:58 | 49.43229 | -2.69662 | 1439 ft | 130 kts | 88° |
| 2026-04-25 16:59 | 49.43271 | -2.68269 | 1266 ft | 131 kts | 88° |
| 2026-04-25 16:59 | 49.43312 | -2.66875 | 1050 ft | 130 kts | 87° |
| 2026-04-25 16:59 | 49.43348 | -2.65489 | 859 ft | 130 kts | 86° |
| 2026-04-25 16:59 | 49.43385 | -2.64102 | 700 ft | 130 kts | 86° |
| 2026-04-25 17:00 | 49.43426 | -2.62720 | 505 ft | 130 kts | 84° |
| 2026-04-25 17:00 | 49.43460 | -2.61344 | 352 ft | 129 kts | 85° |
| 2026-04-25 17:00 | 49.43501 | -2.60181 | 335 ft | 74 kts | 88° |
| 2026-04-25 17:00 | 49.43493 | -2.59855 | 351 ft | 9 kts | 151° |
| 2026-04-25 17:01 | 49.43442 | -2.59864 | 347 ft | 8 kts | 182° |
| 2026-04-25 17:01 | 49.43378 | -2.59865 | 344 ft | 7 kts | 172° |
| 2026-04-25 17:01 | 49.43348 | -2.59809 | 349 ft | 8 kts | 101° |
| 2026-04-25 17:01 | 49.43360 | -2.59706 | 347 ft | 11 kts | 79° |
| 2026-04-25 17:02 | 49.43362 | -2.59672 | 347 ft | 2 kts | 85° |
| 2026-04-25 17:02 | 49.43354 | -2.59643 | 344 ft | 4 kts | 151° |
| 2026-04-25 17:02 | 49.43328 | -2.59621 | 353 ft | 5 kts | 180° |
| 2026-04-25 17:02 | 49.43285 | -2.59624 | 344 ft | 7 kts | 177° |
| 2026-04-25 17:03 | 49.43256 | -2.59622 | 344 ft | 0 kts | 176° |
| 2026-04-25 17:03 | 49.43254 | -2.59621 | 344 ft | 0 kts | 176° |